createdAt,value
2023-02-22T00:02:10.816Z,171.18
2023-02-22T00:04:41.791Z,179.35
2023-02-22T00:07:09.601Z,179.05
2023-02-22T00:09:37.409Z,173.80
2023-02-22T00:12:05.296Z,176.75
2023-02-22T00:14:33.638Z,180.50
2023-02-22T00:17:02.470Z,171.40
2023-02-22T00:19:31.123Z,191.18
2023-02-22T00:22:00.133Z,185.57
2023-02-22T00:24:29.490Z,179.00
2023-02-22T00:26:57.514Z,181.93
2023-02-22T00:29:25.855Z,174.43
2023-02-22T00:31:54.214Z,170.57
2023-02-22T00:34:24.197Z,171.18
2023-02-22T00:36:52.144Z,168.27
2023-02-22T00:39:20.240Z,187.98
2023-02-22T00:41:48.127Z,181.82
2023-02-22T00:44:16.079Z,181.80
2023-02-22T00:46:43.917Z,169.88
2023-02-22T00:49:11.701Z,177.88
2023-02-22T00:51:39.692Z,178.15
2023-02-22T00:54:08.080Z,162.07
2023-02-22T00:56:35.974Z,167.32
2023-02-22T00:59:04.618Z,178.45
2023-02-22T01:01:32.442Z,163.60
2023-02-22T01:04:00.329Z,187.40
2023-02-22T01:06:29.410Z,176.50
2023-02-22T01:08:59.489Z,180.55
2023-02-22T01:11:27.403Z,193.93
2023-02-22T01:13:55.479Z,178.68
2023-02-22T01:16:23.439Z,179.05
2023-02-22T01:18:51.491Z,182.02
2023-02-22T01:21:19.419Z,194.65
2023-02-22T01:23:47.385Z,191.10
2023-02-22T01:26:15.415Z,177.90
2023-02-22T01:28:43.307Z,190.68
2023-02-22T01:31:11.334Z,184.48
2023-02-22T01:33:39.512Z,193.52
2023-02-22T01:36:11.449Z,186.57
2023-02-22T01:38:39.696Z,185.63
2023-02-22T01:41:07.576Z,188.02
2023-02-22T01:43:37.995Z,176.50
2023-02-22T01:46:08.412Z,178.73
2023-02-22T01:48:37.556Z,180.48
2023-02-22T01:51:17.049Z,186.73
2023-02-22T01:53:57.144Z,192.82
2023-02-22T01:56:26.290Z,183.55
2023-02-22T01:58:56.785Z,185.32
2023-02-22T02:01:25.951Z,191.02
2023-02-22T02:03:58.276Z,188.27
2023-02-22T02:06:27.348Z,184.80
2023-02-22T02:09:15.376Z,186.18
2023-02-22T02:11:43.357Z,186.85
2023-02-22T02:14:11.930Z,187.68
2023-02-22T02:16:50.375Z,191.80
2023-02-22T02:19:44.632Z,184.25
2023-02-22T02:22:14.004Z,185.98
2023-02-22T02:24:57.523Z,182.68
2023-02-22T02:27:27.494Z,196.80
2023-02-22T02:29:55.300Z,184.50
2023-02-22T02:32:41.683Z,187.43
2023-02-22T02:35:21.573Z,193.23
2023-02-22T02:37:54.186Z,185.13
2023-02-22T02:40:47.341Z,190.60
2023-02-22T02:43:18.670Z,187.13
2023-02-22T02:45:50.413Z,180.88
2023-02-22T02:48:19.736Z,182.77
2023-02-22T02:50:50.470Z,197.13
2023-02-22T02:53:20.928Z,182.43
2023-02-22T02:55:48.833Z,182.90
2023-02-22T02:58:21.144Z,193.23
2023-02-22T03:00:50.947Z,194.07
2023-02-22T03:03:37.584Z,190.95
2023-02-22T03:06:15.005Z,189.13
2023-02-22T03:08:45.804Z,178.70
2023-02-22T03:11:21.345Z,185.25
2023-02-22T03:13:52.281Z,191.70
2023-02-22T03:16:24.741Z,189.07
2023-02-22T03:19:11.204Z,181.88
2023-02-22T03:21:56.325Z,192.27
2023-02-22T03:24:27.159Z,171.85
2023-02-22T03:27:16.326Z,181.63
2023-02-22T03:29:50.457Z,178.45
2023-02-22T03:32:22.790Z,178.80
2023-02-22T03:34:56.726Z,187.73
2023-02-22T03:37:30.084Z,183.70
2023-02-22T03:40:00.462Z,182.57
2023-02-22T03:42:34.256Z,183.73
2023-02-22T03:47:46.255Z,192.98
2023-02-22T03:50:26.268Z,178.88
2023-02-22T03:52:54.311Z,190.63
2023-02-22T03:55:28.829Z,189.50
2023-02-22T03:57:58.423Z,194.30
2023-02-22T04:00:30.086Z,185.63
2023-02-22T04:02:58.513Z,186.07
2023-02-22T04:05:26.420Z,191.23
2023-02-22T04:07:55.343Z,183.65
2023-02-22T04:10:23.781Z,181.27
2023-02-22T04:12:51.877Z,177.35
2023-02-22T04:15:21.794Z,181.90
2023-02-22T04:17:52.342Z,196.98
2023-02-22T04:20:20.828Z,181.27
2023-02-22T04:22:55.980Z,184.38
2023-02-22T04:25:24.240Z,191.20
2023-02-22T04:27:53.181Z,189.77
2023-02-22T04:30:32.542Z,188.65
2023-02-22T04:33:01.224Z,188.93
2023-02-22T04:35:29.148Z,191.70
2023-02-22T04:37:58.201Z,183.85
2023-02-22T04:40:26.139Z,188.38
2023-02-22T04:42:54.390Z,188.27
2023-02-22T04:45:22.260Z,191.30
2023-02-22T04:47:50.136Z,194.60
2023-02-22T04:50:19.132Z,192.15
2023-02-22T04:52:47.515Z,197.75
2023-02-22T04:55:16.618Z,196.10
2023-02-22T04:57:44.466Z,199.35
2023-02-22T05:00:16.979Z,185.88
2023-02-22T05:02:45.396Z,201.32
2023-02-22T05:05:14.840Z,197.65
2023-02-22T05:07:42.939Z,196.60
2023-02-22T05:10:11.960Z,186.02
2023-02-22T05:12:39.862Z,182.95
2023-02-22T05:15:08.556Z,191.60
2023-02-22T05:17:36.839Z,197.63
2023-02-22T05:20:05.309Z,196.48
2023-02-22T05:22:33.128Z,192.45
2023-02-22T05:25:00.937Z,190.65
2023-02-22T05:27:28.752Z,194.30
2023-02-22T05:29:56.536Z,201.05
2023-02-22T05:32:24.398Z,186.25
2023-02-22T05:34:52.259Z,191.10
2023-02-22T05:37:20.100Z,185.32
2023-02-22T05:39:48.037Z,193.35
2023-02-22T05:42:15.863Z,192.98
2023-02-22T05:44:44.083Z,192.93
2023-02-22T05:47:11.875Z,183.13
2023-02-22T05:49:39.730Z,191.93
2023-02-22T05:52:07.807Z,185.98
2023-02-22T05:54:35.696Z,192.68
2023-02-22T05:57:04.536Z,181.30
2023-02-22T05:59:32.323Z,184.52
2023-02-22T06:02:00.189Z,182.73
2023-02-22T06:04:28.152Z,188.98
2023-02-22T06:06:55.993Z,183.50
2023-02-22T06:09:23.779Z,181.90
2023-02-22T06:11:54.380Z,190.80
2023-02-22T06:14:22.282Z,189.38
2023-02-22T06:16:56.973Z,187.48
2023-02-22T06:19:24.918Z,192.20
2023-02-22T06:21:57.017Z,198.90
2023-02-22T06:24:24.887Z,195.68
2023-02-22T06:27:02.543Z,196.20
2023-02-22T06:29:30.479Z,190.55
2023-02-22T06:31:58.329Z,173.00
2023-02-22T06:34:26.204Z,188.93
2023-02-22T06:36:53.989Z,189.30
2023-02-22T06:39:22.098Z,192.80
2023-02-22T06:41:51.481Z,203.80
2023-02-22T06:44:19.362Z,196.68
2023-02-22T06:46:53.970Z,196.88
2023-02-22T06:49:21.773Z,197.00
2023-02-22T06:51:49.656Z,199.50
2023-02-22T06:54:17.458Z,200.65
2023-02-22T06:56:45.287Z,201.82
2023-02-22T06:59:13.147Z,212.75
2023-02-22T07:01:41.868Z,200.52
2023-02-22T07:04:09.898Z,202.55
2023-02-22T07:06:37.999Z,212.45
2023-02-22T07:09:05.997Z,215.82
2023-02-22T07:11:33.788Z,217.88
2023-02-22T07:14:01.573Z,215.90
2023-02-22T07:16:29.436Z,202.85
2023-02-22T07:18:57.272Z,205.75
2023-02-22T07:21:25.223Z,224.80
2023-02-22T07:23:56.645Z,208.23
2023-02-22T07:26:24.692Z,211.35
2023-02-22T07:28:52.526Z,213.13
2023-02-22T07:31:20.331Z,211.85
2023-02-22T07:33:48.725Z,207.73
2023-02-22T07:36:18.013Z,207.55
2023-02-22T07:38:46.283Z,204.55
2023-02-22T07:41:14.420Z,204.75
2023-02-22T07:43:42.351Z,204.10
2023-02-22T07:46:10.167Z,204.00
2023-02-22T07:48:39.609Z,217.48
2023-02-22T07:51:07.475Z,215.02
2023-02-22T07:53:35.291Z,200.73
2023-02-22T07:56:05.363Z,208.48
2023-02-22T07:58:33.674Z,213.60
2023-02-22T08:01:04.696Z,214.93
2023-02-22T08:03:38.065Z,213.93
2023-02-22T08:06:07.134Z,204.90
2023-02-22T08:08:35.053Z,216.32
2023-02-22T08:11:02.855Z,208.55
2023-02-22T08:13:30.816Z,209.73
2023-02-22T08:15:58.689Z,210.55
2023-02-22T08:18:26.648Z,205.30
2023-02-22T08:20:55.054Z,208.48
2023-02-22T08:23:25.262Z,206.80
2023-02-22T08:25:53.645Z,214.52
2023-02-22T08:28:23.464Z,206.88
2023-02-22T08:30:52.043Z,213.35
2023-02-22T08:33:20.339Z,209.10
2023-02-22T08:35:51.972Z,204.30
2023-02-22T08:38:24.770Z,208.30
2023-02-22T08:40:52.987Z,224.13
2023-02-22T08:43:21.285Z,207.02
2023-02-22T08:45:49.704Z,200.85
2023-02-22T08:48:17.987Z,206.75
2023-02-22T08:50:46.625Z,199.90
2023-02-22T08:53:15.561Z,212.35
2023-02-22T08:55:43.588Z,206.70
2023-02-22T08:58:12.187Z,207.73
2023-02-22T09:00:41.015Z,204.05
2023-02-22T09:03:10.915Z,201.20
2023-02-22T09:05:38.791Z,201.52
2023-02-22T09:08:07.259Z,199.75
2023-02-22T09:10:35.460Z,200.63
2023-02-22T09:13:04.193Z,200.90
2023-02-22T09:15:32.716Z,191.73
2023-02-22T09:18:01.608Z,212.25
2023-02-22T09:20:29.674Z,199.57
2023-02-22T09:22:57.835Z,191.57
2023-02-22T09:25:27.200Z,198.25
2023-02-22T09:27:55.333Z,200.23
2023-02-22T09:30:26.225Z,191.18
2023-02-22T09:32:59.087Z,190.00
2023-02-22T09:35:27.795Z,181.85
2023-02-22T09:37:56.394Z,189.82
2023-02-22T09:40:29.937Z,180.05
2023-02-22T09:43:18.933Z,167.57
2023-02-22T09:46:07.073Z,170.25
2023-02-22T09:48:37.122Z,179.40
2023-02-22T09:51:18.400Z,187.93
2023-02-22T09:53:48.469Z,176.60
2023-02-22T09:56:18.573Z,176.55
2023-02-22T09:58:48.082Z,180.00
2023-02-22T10:01:30.430Z,153.65
2023-02-22T10:04:05.291Z,158.57
2023-02-22T10:06:34.533Z,165.23
2023-02-22T10:09:08.088Z,166.70
2023-02-22T10:11:50.593Z,154.32
2023-02-22T10:14:34.556Z,154.70
2023-02-22T10:17:22.414Z,162.38
2023-02-22T10:19:54.754Z,162.43
2023-02-22T10:22:26.000Z,162.02
2023-02-22T10:25:01.857Z,164.85
2023-02-22T10:27:34.296Z,159.73
2023-02-22T10:30:23.811Z,160.85
2023-02-22T10:32:58.783Z,154.20
2023-02-22T10:35:28.970Z,159.43
2023-02-22T10:38:00.463Z,147.27
2023-02-22T10:40:34.664Z,162.30
2023-02-22T10:43:06.461Z,150.00
2023-02-22T10:45:34.816Z,140.00
2023-02-22T10:48:08.546Z,144.95
2023-02-22T10:50:38.025Z,151.73
2023-02-22T10:53:05.842Z,148.70
2023-02-22T10:55:33.775Z,148.02
2023-02-22T10:58:07.013Z,145.60
2023-02-22T11:00:37.339Z,153.15
2023-02-22T11:03:16.492Z,145.27
2023-02-22T11:05:44.663Z,143.65
2023-02-22T11:08:21.728Z,137.85
2023-02-22T11:10:50.338Z,145.80
2023-02-22T11:13:25.998Z,153.15
2023-02-22T11:15:54.709Z,160.23
2023-02-22T11:18:25.130Z,147.98
2023-02-22T11:21:03.555Z,143.48
2023-02-22T11:23:31.671Z,145.63
2023-02-22T11:26:03.890Z,142.85
2023-02-22T11:28:32.996Z,138.07
2023-02-22T11:31:15.943Z,139.23
2023-02-22T11:33:52.628Z,149.75
2023-02-22T11:36:37.462Z,141.70
2023-02-22T11:39:06.648Z,148.00
2023-02-22T11:41:34.995Z,146.55
2023-02-22T11:44:15.026Z,151.82
2023-02-22T11:46:43.357Z,158.38
2023-02-22T11:49:13.122Z,156.85
2023-02-22T11:51:58.562Z,141.75
2023-02-22T11:54:35.357Z,143.82
2023-02-22T11:57:07.220Z,140.80
2023-02-22T11:59:58.860Z,141.75
2023-02-22T12:02:26.783Z,147.73
2023-02-22T12:05:08.064Z,145.57
2023-02-22T12:07:35.853Z,138.93
2023-02-22T12:10:09.835Z,138.73
2023-02-22T12:12:44.628Z,146.20
2023-02-22T12:15:31.569Z,137.40
2023-02-22T12:18:02.153Z,149.00
2023-02-22T12:20:32.706Z,144.85
2023-02-22T12:23:03.542Z,154.00
2023-02-22T12:25:39.424Z,143.30
2023-02-22T12:28:25.409Z,153.45
2023-02-22T12:30:57.159Z,146.00
2023-02-22T12:33:28.382Z,139.10
2023-02-22T12:35:57.615Z,148.50
2023-02-22T12:38:32.999Z,148.98
2023-02-22T12:41:18.360Z,151.60
2023-02-22T12:43:48.464Z,147.73
2023-02-22T12:46:18.964Z,142.75
2023-02-22T12:48:49.522Z,147.25
2023-02-22T12:51:24.493Z,143.98
2023-02-22T12:54:11.985Z,145.13
2023-02-22T12:56:45.931Z,149.73
2023-02-22T12:59:20.103Z,147.93
2023-02-22T13:01:52.258Z,152.02
2023-02-22T13:04:21.539Z,148.90
2023-02-22T13:07:09.788Z,149.82
2023-02-22T13:09:54.528Z,158.88
2023-02-22T13:12:22.353Z,158.70
2023-02-22T13:14:59.281Z,150.10
2023-02-22T13:17:50.102Z,149.18
2023-02-22T13:20:22.673Z,153.10
2023-02-22T13:22:53.046Z,156.90
2023-02-22T13:25:31.596Z,141.85
2023-02-22T13:28:17.694Z,148.00
2023-02-22T13:30:52.032Z,152.75
2023-02-22T13:33:23.362Z,151.98
2023-02-22T13:36:09.985Z,151.77
2023-02-22T13:38:37.810Z,150.05
2023-02-22T13:41:05.648Z,138.30
2023-02-22T13:43:52.037Z,154.40
2023-02-22T13:46:29.880Z,161.32
2023-02-22T13:48:57.707Z,150.20
2023-02-22T13:51:34.439Z,146.80
2023-02-22T13:54:05.292Z,149.40
2023-02-22T13:56:33.149Z,147.23
2023-02-22T13:59:02.455Z,153.73
2023-02-22T14:01:46.607Z,141.10
2023-02-22T14:04:20.610Z,146.85
2023-02-22T14:06:48.437Z,156.60
2023-02-22T14:09:19.951Z,149.35
2023-02-22T14:11:48.518Z,143.98
2023-02-22T14:14:17.911Z,151.20
2023-02-22T14:16:46.164Z,148.82
2023-02-22T14:19:15.436Z,152.77
2023-02-22T14:21:56.679Z,162.10
2023-02-22T14:24:24.572Z,148.15
2023-02-22T14:26:59.959Z,146.00
2023-02-22T14:29:28.229Z,145.98
2023-02-22T14:31:56.099Z,142.48
2023-02-22T14:34:40.868Z,148.52
2023-02-22T14:37:20.404Z,150.70
2023-02-22T14:40:12.950Z,149.38
2023-02-22T14:42:45.045Z,144.25
2023-02-22T14:45:17.231Z,155.13
2023-02-22T14:48:03.477Z,144.55
2023-02-22T14:50:51.567Z,142.05
2023-02-22T14:53:19.401Z,151.27
2023-02-22T14:56:04.030Z,141.05
2023-02-22T14:58:42.587Z,147.52
2023-02-22T15:01:23.384Z,142.95
2023-02-22T15:04:07.323Z,146.25
2023-02-22T15:06:36.081Z,139.32
2023-02-22T15:09:29.187Z,146.13
2023-02-22T15:12:03.318Z,148.50
2023-02-22T15:14:33.145Z,146.45
2023-02-22T15:17:02.100Z,154.35
2023-02-22T15:19:31.993Z,149.02
2023-02-22T15:22:01.757Z,143.57
2023-02-22T15:24:30.950Z,135.23
2023-02-22T15:27:06.240Z,151.20
2023-02-22T15:29:39.006Z,157.05
2023-02-22T15:32:20.495Z,137.53
2023-02-22T15:34:48.384Z,149.07
2023-02-22T15:37:25.426Z,144.70
2023-02-22T15:39:59.478Z,143.07
2023-02-22T15:42:29.722Z,151.13
2023-02-22T15:44:58.172Z,147.82
2023-02-22T15:47:30.179Z,146.95
2023-02-22T15:50:16.636Z,149.65
2023-02-22T15:52:48.661Z,146.75
2023-02-22T15:55:17.832Z,145.27
2023-02-22T15:57:45.797Z,138.57
2023-02-22T16:00:24.694Z,143.75
2023-02-22T16:02:52.687Z,147.45
2023-02-22T16:05:20.572Z,153.30
2023-02-22T16:07:50.143Z,151.60
2023-02-22T16:10:23.962Z,137.40
2023-02-22T16:13:03.893Z,159.43
2023-02-22T16:15:35.039Z,143.15
2023-02-22T16:18:24.666Z,151.35
2023-02-22T16:20:59.444Z,142.88
2023-02-22T16:23:27.743Z,144.13
2023-02-22T16:26:02.466Z,145.82
2023-02-22T16:28:33.891Z,154.10
2023-02-22T16:31:03.032Z,153.00
2023-02-22T16:33:33.825Z,161.02
2023-02-22T16:36:08.162Z,143.02
2023-02-22T16:38:38.528Z,135.57
2023-02-22T16:41:07.545Z,142.07
2023-02-22T16:43:35.731Z,148.77
2023-02-22T16:46:06.875Z,152.90
2023-02-22T16:48:38.344Z,163.90
2023-02-22T16:51:26.136Z,148.85
2023-02-22T16:53:54.415Z,146.15
2023-02-22T16:56:32.152Z,153.68
2023-02-22T16:59:06.453Z,147.98
2023-02-22T17:04:04.693Z,155.45
2023-02-22T17:06:33.427Z,158.13
2023-02-22T17:09:04.155Z,153.45
2023-02-22T17:11:32.581Z,157.57
2023-02-22T17:14:00.355Z,161.75
2023-02-22T17:16:33.338Z,159.70
2023-02-22T17:19:01.181Z,167.48
2023-02-22T17:21:28.991Z,168.48
2023-02-22T17:23:56.822Z,159.60
2023-02-22T17:26:28.340Z,154.98
2023-02-22T17:28:56.186Z,164.85
2023-02-22T17:31:29.597Z,167.45
2023-02-22T17:34:06.104Z,166.73
2023-02-22T17:36:37.246Z,170.77
2023-02-22T17:39:06.090Z,167.20
2023-02-22T17:41:34.087Z,149.00
2023-02-22T17:44:01.859Z,162.55
2023-02-22T17:46:29.793Z,154.75
2023-02-22T17:48:57.690Z,174.88
2023-02-22T17:51:26.787Z,160.63
2023-02-22T17:53:54.613Z,166.00
2023-02-22T17:56:23.892Z,169.68
2023-02-22T17:58:53.697Z,172.00
2023-02-22T18:01:28.724Z,169.05
2023-02-22T18:03:57.818Z,176.80
2023-02-22T18:06:27.267Z,160.73
2023-02-22T18:08:56.892Z,156.15
2023-02-22T18:11:26.497Z,158.60
2023-02-22T18:13:55.455Z,165.82
2023-02-22T18:16:25.643Z,172.57
2023-02-22T18:18:53.934Z,159.98
2023-02-22T18:21:22.001Z,170.13
2023-02-22T18:23:49.814Z,172.25
2023-02-22T18:26:18.744Z,174.40
2023-02-22T18:28:48.721Z,171.52
2023-02-22T18:31:18.062Z,174.20
2023-02-22T18:33:48.247Z,168.20
2023-02-22T18:36:16.414Z,184.93
2023-02-22T18:38:44.745Z,171.35
2023-02-22T18:41:13.726Z,175.30
2023-02-22T18:43:41.713Z,161.73
2023-02-22T18:46:09.641Z,168.73
2023-02-22T18:48:37.611Z,170.20
2023-02-22T18:51:06.752Z,168.13
2023-02-22T18:53:35.042Z,162.93
2023-02-22T18:56:07.326Z,168.13
2023-02-22T18:58:35.553Z,159.77
2023-02-22T19:01:04.301Z,162.98
2023-02-22T19:03:32.824Z,178.55
2023-02-22T19:06:03.860Z,179.48
2023-02-22T19:08:32.559Z,180.80
2023-02-22T19:11:23.472Z,178.48
2023-02-22T19:13:52.433Z,175.15
2023-02-22T19:16:21.595Z,175.48
2023-02-22T19:18:52.300Z,170.25
2023-02-22T19:21:20.868Z,180.45
2023-02-22T19:23:49.299Z,173.25
2023-02-22T19:26:19.150Z,176.30
2023-02-22T19:28:47.768Z,173.45
2023-02-22T19:31:15.899Z,162.23
2023-02-22T19:33:44.508Z,171.05
2023-02-22T19:36:13.184Z,176.27
2023-02-22T19:38:41.640Z,172.60
2023-02-22T19:41:24.763Z,171.05
2023-02-22T19:43:53.545Z,180.02
2023-02-22T19:46:21.507Z,173.63
2023-02-22T19:48:51.028Z,181.55
2023-02-22T19:51:20.523Z,177.35
2023-02-22T19:53:48.522Z,179.43
2023-02-22T19:56:17.520Z,179.00
2023-02-22T19:58:46.723Z,189.30
2023-02-22T20:01:14.595Z,169.10
2023-02-22T20:03:42.814Z,180.55
2023-02-22T20:06:11.309Z,194.20
2023-02-22T20:08:42.334Z,187.05
2023-02-22T20:11:11.037Z,179.75
2023-02-22T20:13:39.697Z,179.65
2023-02-22T20:16:08.144Z,187.80
2023-02-22T20:18:37.208Z,179.40
2023-02-22T20:21:09.766Z,173.02
2023-02-22T20:23:40.704Z,192.87
2023-02-22T20:26:15.126Z,174.85
2023-02-22T20:28:44.462Z,185.50
2023-02-22T20:31:15.737Z,180.00
2023-02-22T20:33:45.761Z,188.43
2023-02-22T20:36:14.964Z,181.27
2023-02-22T20:38:44.027Z,189.32
2023-02-22T20:41:15.274Z,177.43
2023-02-22T20:43:43.596Z,193.55
2023-02-22T20:46:11.483Z,174.82
2023-02-22T20:48:39.331Z,189.73
2023-02-22T20:51:12.413Z,191.15
2023-02-22T20:53:43.199Z,189.63
2023-02-22T20:56:21.385Z,193.55
2023-02-22T20:58:49.375Z,179.13
2023-02-22T21:01:19.333Z,170.35
2023-02-22T21:03:48.972Z,186.38
2023-02-22T21:06:18.567Z,192.65
2023-02-22T21:08:50.185Z,188.05
2023-02-22T21:11:19.171Z,180.32
2023-02-22T21:13:47.289Z,189.48
2023-02-22T21:16:23.341Z,190.30
2023-02-22T21:18:52.284Z,180.63
2023-02-22T21:21:20.540Z,176.68
2023-02-22T21:23:50.883Z,179.20
2023-02-22T21:26:20.050Z,175.40
2023-02-22T21:28:51.325Z,196.95
2023-02-22T21:31:24.380Z,190.38
2023-02-22T21:33:53.642Z,194.15
2023-02-22T21:36:25.283Z,192.45
2023-02-22T21:38:58.403Z,177.10
2023-02-22T21:41:28.931Z,193.38
2023-02-22T21:43:57.713Z,200.00
2023-02-22T21:46:25.976Z,192.98
2023-02-22T21:48:54.304Z,195.30
2023-02-22T21:51:25.310Z,198.32
2023-02-22T21:53:54.429Z,200.38
2023-02-22T21:56:24.380Z,180.80
2023-02-22T21:59:02.992Z,180.48
2023-02-22T22:01:32.054Z,192.93
2023-02-22T22:04:00.399Z,188.82
2023-02-22T22:06:29.232Z,190.00
2023-02-22T22:08:57.904Z,184.88
2023-02-22T22:11:25.771Z,195.30
2023-02-22T22:13:57.647Z,191.07
2023-02-22T22:16:27.654Z,189.30
2023-02-22T22:18:57.041Z,193.90
2023-02-22T22:21:25.265Z,187.02
2023-02-22T22:23:57.335Z,187.55
2023-02-22T22:26:26.228Z,193.27
2023-02-22T22:28:56.025Z,196.18
2023-02-22T22:31:26.247Z,199.70
2023-02-22T22:33:55.296Z,199.50
2023-02-22T22:36:24.072Z,193.98
2023-02-22T22:38:52.857Z,184.25
2023-02-22T22:41:22.052Z,202.00
2023-02-22T22:43:52.444Z,203.40
2023-02-22T22:46:20.235Z,186.02
2023-02-22T22:48:48.115Z,194.82
2023-02-22T22:51:18.500Z,199.02
2023-02-22T22:53:47.564Z,197.50
2023-02-22T22:56:26.906Z,197.93
2023-02-22T22:58:55.732Z,185.88
2023-02-22T23:01:28.057Z,189.20
2023-02-22T23:04:02.141Z,191.55
2023-02-22T23:06:35.098Z,185.18
2023-02-22T23:09:11.679Z,200.35
2023-02-22T23:11:44.434Z,185.82
2023-02-22T23:14:20.000Z,211.10
2023-02-22T23:16:51.643Z,202.05
2023-02-22T23:19:20.037Z,197.93
2023-02-22T23:21:48.734Z,197.40
2023-02-22T23:24:18.685Z,207.35
2023-02-22T23:26:49.801Z,193.73
2023-02-22T23:29:18.592Z,209.07
2023-02-22T23:31:48.316Z,200.02
2023-02-22T23:34:21.218Z,194.27
2023-02-22T23:36:49.878Z,201.70
2023-02-22T23:39:22.184Z,205.40
2023-02-22T23:41:50.923Z,206.23
2023-02-22T23:44:19.202Z,204.75
2023-02-22T23:46:55.418Z,195.50
2023-02-22T23:49:27.009Z,190.10
2023-02-22T23:51:55.632Z,211.15
2023-02-22T23:54:26.639Z,204.98
2023-02-22T23:56:56.624Z,198.20
2023-02-22T23:59:28.093Z,204.18
